Time;durP1;ratioP1;P1;durP2;ratioP2;P2;SDS_P1;SDS_P2;PMS_P1;PMS_P2;Temp;Humidity;BMP_temperature;BMP_pressure;BME280_temperature;BME280_humidity;BME280_pressure;Samples;Min_cycle;Max_cycle;Signal;HPM_P1;HPM_P2
2023/07/31 00:01:14;;;;;;;0.90;0.70;;;;;;;;;;5095011;28;20024;-80
2023/07/31 00:03:40;;;;;;;0.85;0.80;;;;;;;;;;5096225;28;20032;-80
2023/07/31 00:06:05;;;;;;;1.10;0.70;;;;;;;;;;5095077;28;20074;-80
2023/07/31 00:08:30;;;;;;;0.70;0.70;;;;;;;;;;5095046;28;20043;-80
2023/07/31 00:10:56;;;;;;;0.77;0.77;;;;;;;;;;5096241;28;20497;-80
2023/07/31 00:13:21;;;;;;;0.95;0.73;;;;;;;;;;5094592;28;20032;-80
2023/07/31 00:15:46;;;;;;;0.70;0.70;;;;;;;;;;5094916;28;20035;-80
2023/07/31 00:18:13;;;;;;;0.70;0.70;;;;;;;;;;5096050;28;20028;-80
2023/07/31 00:20:38;;;;;;;0.75;0.75;;;;;;;;;;5094319;28;20054;-80
2023/07/31 00:23:03;;;;;;;0.63;0.63;;;;;;;;;;5095672;28;20043;-80
2023/07/31 00:25:29;;;;;;;0.98;0.70;;;;;;;;;;5094411;28;20096;-80
2023/07/31 00:27:54;;;;;;;0.60;0.60;;;;;;;;;;5095760;28;20031;-80
2023/07/31 00:30:19;;;;;;;1.02;0.80;;;;;;;;;;5077742;28;20402;-80
2023/07/31 00:32:45;;;;;;;0.65;0.65;;;;;;;;;;5096064;28;20047;-80
2023/07/31 00:35:10;;;;;;;0.52;0.52;;;;;;;;;;5094246;28;20054;-80
2023/07/31 00:37:35;;;;;;;0.50;0.50;;;;;;;;;;5095712;28;20032;-80
2023/07/31 00:40:03;;;;;;;0.52;0.52;;;;;;;;;;5094395;28;20459;-80
2023/07/31 00:42:28;;;;;;;0.50;0.50;;;;;;;;;;5094192;28;20024;-79
2023/07/31 00:44:54;;;;;;;0.70;0.70;;;;;;;;;;5077043;28;20391;-80
2023/07/31 00:47:19;;;;;;;0.73;0.60;;;;;;;;;;5095296;28;20040;-80
2023/07/31 00:49:45;;;;;;;1.05;0.70;;;;;;;;;;5095517;28;20450;-80
2023/07/31 00:52:10;;;;;;;0.95;0.77;;;;;;;;;;5095228;28;20043;-80
2023/07/31 00:54:36;;;;;;;0.55;0.55;;;;;;;;;;5095130;28;20481;-80
2023/07/31 00:57:02;;;;;;;0.50;0.50;;;;;;;;;;5093758;28;20036;-80
2023/07/31 00:59:27;;;;;;;0.68;0.65;;;;;;;;;;5095273;28;20028;-80
2023/07/31 01:01:53;;;;;;;0.80;0.80;;;;;;;;;;5095305;28;20356;-79
2023/07/31 01:04:18;;;;;;;0.43;0.40;;;;;;;;;;5093866;28;20042;-80
2023/07/31 01:07:06;;;;;;;0.82;0.60;;;;;;;;;;5093936;28;20028;-80
2023/07/31 01:09:43;;;;;;;0.52;0.50;;;;;;;;;;5093447;28;20024;-79
2023/07/31 01:12:13;;;;;;;0.60;0.60;;;;;;;;;;5092538;28;20028;-79
2023/07/31 01:14:38;;;;;;;0.77;0.60;;;;;;;;;;5076546;28;20016;-79
2023/07/31 01:17:04;;;;;;;0.55;0.55;;;;;;;;;;5093312;28;20194;-79
2023/07/31 01:19:30;;;;;;;0.98;0.68;;;;;;;;;;5093536;28;20107;-79
2023/07/31 01:22:20;;;;;;;0.77;0.77;;;;;;;;;;5094449;28;20149;-80
2023/07/31 01:25:17;;;;;;;1.25;0.80;;;;;;;;;;5094393;28;20024;-79
2023/07/31 01:28:05;;;;;;;0.77;0.75;;;;;;;;;;5093419;28;20137;-79
2023/07/31 01:30:38;;;;;;;0.95;0.80;;;;;;;;;;5093201;28;20387;-79
2023/07/31 01:33:07;;;;;;;1.48;0.90;;;;;;;;;;5094317;28;20467;-79
2023/07/31 01:35:34;;;;;;;1.00;0.80;;;;;;;;;;5094832;28;20085;-79
2023/07/31 01:37:59;;;;;;;0.80;0.80;;;;;;;;;;5093371;28;20027;-79
2023/07/31 01:40:24;;;;;;;0.98;0.77;;;;;;;;;;5093053;28;20482;-79
2023/07/31 01:42:50;;;;;;;1.08;0.95;;;;;;;;;;5094458;28;20024;-79
2023/07/31 01:45:15;;;;;;;1.40;1.00;;;;;;;;;;5094327;28;20028;-79
2023/07/31 01:47:41;;;;;;;1.77;1.10;;;;;;;;;;5094309;28;20131;-79
2023/07/31 01:50:06;;;;;;;1.00;0.95;;;;;;;;;;5092852;28;20031;-79
2023/07/31 01:52:32;;;;;;;3.03;1.35;;;;;;;;;;5094202;28;20051;-79
2023/07/31 01:54:57;;;;;;;1.27;1.10;;;;;;;;;;5093031;28;20058;-79
2023/07/31 01:57:22;;;;;;;2.42;1.13;;;;;;;;;;5093901;28;20043;-79
2023/07/31 01:59:48;;;;;;;1.35;1.13;;;;;;;;;;5094455;28;20035;-79
2023/07/31 02:02:13;;;;;;;1.35;0.98;;;;;;;;;;5092642;28;20124;-79
2023/07/31 02:04:40;;;;;;;1.40;1.15;;;;;;;;;;5093710;28;20036;-79
2023/07/31 02:07:06;;;;;;;1.20;1.10;;;;;;;;;;5093782;28;20479;-79
2023/07/31 02:09:31;;;;;;;1.10;1.00;;;;;;;;;;5093675;28;20103;-79
2023/07/31 02:11:56;;;;;;;0.95;0.80;;;;;;;;;;5093705;28;20024;-79
2023/07/31 02:14:22;;;;;;;1.67;1.25;;;;;;;;;;5092610;28;20032;-81
2023/07/31 02:16:47;;;;;;;2.22;1.20;;;;;;;;;;5093603;28;20028;-79
2023/07/31 02:19:13;;;;;;;1.77;1.20;;;;;;;;;;5093169;28;20165;-80
2023/07/31 02:21:38;;;;;;;1.38;1.02;;;;;;;;;;5092306;28;20055;-79
2023/07/31 02:24:04;;;;;;;1.35;1.00;;;;;;;;;;5093658;28;20036;-80
2023/07/31 02:26:29;;;;;;;2.17;1.20;;;;;;;;;;5093154;28;20039;-79
2023/07/31 02:28:54;;;;;;;1.75;1.30;;;;;;;;;;5092139;28;20487;-79
2023/07/31 02:31:20;;;;;;;1.17;0.95;;;;;;;;;;5092449;28;20032;-79
2023/07/31 02:33:45;;;;;;;1.75;1.30;;;;;;;;;;5093375;28;20032;-80
2023/07/31 02:36:11;;;;;;;3.70;1.42;;;;;;;;;;5093624;28;20028;-80
2023/07/31 02:38:36;;;;;;;2.47;1.50;;;;;;;;;;5093621;28;20078;-80
2023/07/31 02:41:01;;;;;;;2.33;1.42;;;;;;;;;;5093240;28;20028;-79
2023/07/31 02:43:27;;;;;;;2.40;1.50;;;;;;;;;;5093554;28;20363;-81
2023/07/31 02:45:52;;;;;;;4.18;1.80;;;;;;;;;;5093444;28;20108;-79
2023/07/31 02:48:18;;;;;;;3.20;1.77;;;;;;;;;;5093489;28;20364;-79
2023/07/31 02:50:44;;;;;;;3.50;1.95;;;;;;;;;;5092083;28;20036;-79
2023/07/31 02:53:09;;;;;;;4.15;1.98;;;;;;;;;;5093128;28;20032;-79
2023/07/31 02:55:34;;;;;;;4.88;2.08;;;;;;;;;;5093087;28;20024;-79
2023/07/31 02:58:00;;;;;;;3.63;2.13;;;;;;;;;;5092171;28;20032;-79
2023/07/31 03:00:25;;;;;;;5.03;1.98;;;;;;;;;;5093431;28;20383;-79
2023/07/31 03:02:50;;;;;;;3.92;1.90;;;;;;;;;;5093037;28;20032;-79
2023/07/31 03:05:16;;;;;;;3.47;2.00;;;;;;;;;;5093288;28;20032;-79
2023/07/31 03:07:41;;;;;;;3.97;2.25;;;;;;;;;;5093595;28;20446;-80
2023/07/31 03:10:07;;;;;;;4.13;2.20;;;;;;;;;;5093306;28;20032;-79
2023/07/31 03:12:33;;;;;;;2.88;1.77;;;;;;;;;;5091703;28;20035;-79
2023/07/31 03:14:58;;;;;;;3.88;2.40;;;;;;;;;;5091788;28;20024;-79
2023/07/31 03:17:23;;;;;;;3.22;1.77;;;;;;;;;;5091603;28;20032;-79
2023/07/31 03:19:49;;;;;;;4.63;2.17;;;;;;;;;;5091720;28;20042;-79
2023/07/31 03:22:14;;;;;;;2.80;1.95;;;;;;;;;;5091634;28;20499;-79
2023/07/31 03:24:39;;;;;;;6.35;2.50;;;;;;;;;;5092831;28;20032;-80
2023/07/31 03:27:05;;;;;;;4.45;2.17;;;;;;;;;;5091671;28;20043;-79
2023/07/31 03:29:30;;;;;;;4.82;2.22;;;;;;;;;;5092853;28;20426;-79
2023/07/31 03:31:56;;;;;;;5.25;2.42;;;;;;;;;;5091897;28;20043;-81
2023/07/31 03:34:21;;;;;;;4.07;2.30;;;;;;;;;;5092511;28;20076;-81
2023/07/31 03:36:47;;;;;;;3.65;2.20;;;;;;;;;;5095958;28;20123;-80
2023/07/31 03:39:12;;;;;;;4.95;2.22;;;;;;;;;;5096753;28;20035;-80
2023/07/31 03:41:37;;;;;;;4.40;2.60;;;;;;;;;;5096861;28;20024;-81
2023/07/31 03:44:03;;;;;;;4.53;2.20;;;;;;;;;;5095564;28;20032;-80
2023/07/31 03:46:28;;;;;;;6.22;2.92;;;;;;;;;;5095171;28;20032;-80
2023/07/31 03:48:54;;;;;;;3.42;2.20;;;;;;;;;;5095448;28;20509;-80
2023/07/31 03:51:19;;;;;;;6.88;2.40;;;;;;;;;;5096787;28;20071;-80
2023/07/31 03:53:45;;;;;;;6.25;2.42;;;;;;;;;;5095349;28;20035;-80
2023/07/31 03:56:10;;;;;;;6.78;2.80;;;;;;;;;;5095185;28;20047;-80
2023/07/31 03:58:36;;;;;;;5.05;2.65;;;;;;;;;;5095257;28;20528;-80
2023/07/31 04:01:02;;;;;;;6.20;2.75;;;;;;;;;;5094862;28;20024;-80
2023/07/31 04:03:28;;;;;;;4.68;2.53;;;;;;;;;;5095590;28;20020;-80
2023/07/31 04:05:55;;;;;;;7.18;3.05;;;;;;;;;;5096791;28;20158;-80
2023/07/31 04:08:20;;;;;;;6.15;2.53;;;;;;;;;;5095363;28;20042;-80
2023/07/31 04:10:47;;;;;;;5.35;2.67;;;;;;;;;;5096250;28;20031;-80
2023/07/31 04:13:12;;;;;;;4.60;2.58;;;;;;;;;;5096729;28;20034;-80
2023/07/31 04:15:38;;;;;;;5.88;2.90;;;;;;;;;;5094919;28;20107;-80
2023/07/31 04:18:03;;;;;;;6.22;3.13;;;;;;;;;;5096642;28;20086;-80
2023/07/31 04:20:28;;;;;;;6.40;2.80;;;;;;;;;;5095204;28;20028;-80
2023/07/31 04:22:54;;;;;;;6.70;2.80;;;;;;;;;;5094650;28;20063;-80
2023/07/31 04:25:19;;;;;;;6.88;3.20;;;;;;;;;;5096151;28;20364;-80
2023/07/31 04:27:44;;;;;;;3.25;2.25;;;;;;;;;;5095597;28;20031;-79
2023/07/31 04:30:10;;;;;;;5.45;2.67;;;;;;;;;;5094767;28;20039;-80
2023/07/31 04:32:35;;;;;;;6.85;2.95;;;;;;;;;;5095928;28;20378;-80
2023/07/31 04:35:01;;;;;;;5.45;2.88;;;;;;;;;;5094376;28;20028;-80
2023/07/31 04:37:26;;;;;;;5.93;2.70;;;;;;;;;;5095822;28;20100;-80
2023/07/31 04:39:52;;;;;;;4.53;2.63;;;;;;;;;;5095630;28;20111;-80
2023/07/31 04:42:17;;;;;;;5.65;2.80;;;;;;;;;;5094113;28;20031;-80
2023/07/31 04:44:43;;;;;;;6.35;3.10;;;;;;;;;;5094469;28;20158;-80
2023/07/31 04:47:08;;;;;;;6.20;2.67;;;;;;;;;;5095369;28;20024;-80
2023/07/31 04:49:33;;;;;;;5.30;2.70;;;;;;;;;;5094071;28;20110;-80
2023/07/31 04:51:59;;;;;;;7.85;3.28;;;;;;;;;;5095305;28;20468;-80
2023/07/31 04:54:24;;;;;;;6.97;3.05;;;;;;;;;;5095498;28;20028;-80
2023/07/31 04:56:49;;;;;;;6.40;2.42;;;;;;;;;;5094059;28;20036;-80
2023/07/31 04:59:15;;;;;;;6.10;2.88;;;;;;;;;;5095527;28;20046;-80
2023/07/31 05:01:40;;;;;;;5.82;2.85;;;;;;;;;;5093880;28;20028;-80
2023/07/31 05:04:05;;;;;;;5.53;2.70;;;;;;;;;;5093965;28;20028;-80
2023/07/31 05:06:32;;;;;;;5.45;2.72;;;;;;;;;;5094101;28;20463;-80
2023/07/31 05:08:57;;;;;;;5.05;2.58;;;;;;;;;;5093793;28;20375;-80
2023/07/31 05:11:22;;;;;;;7.10;2.88;;;;;;;;;;5095262;28;20039;-80
2023/07/31 05:13:48;;;;;;;6.32;2.78;;;;;;;;;;5094881;28;20364;-80
2023/07/31 05:16:13;;;;;;;5.55;2.92;;;;;;;;;;5094741;28;20035;-80
2023/07/31 05:18:38;;;;;;;8.63;2.80;;;;;;;;;;5094729;28;20386;-80
2023/07/31 05:21:04;;;;;;;6.45;3.10;;;;;;;;;;5076275;28;20052;-80
2023/07/31 05:23:31;;;;;;;5.15;3.05;;;;;;;;;;5094049;28;20073;-80
2023/07/31 05:26:05;;;;;;;4.80;3.03;;;;;;;;;;5094834;28;20470;-80
2023/07/31 05:28:30;;;;;;;6.88;2.95;;;;;;;;;;5076447;28;20036;-80
2023/07/31 05:31:03;;;;;;;4.72;2.83;;;;;;;;;;5094536;28;20437;-80
2023/07/31 05:33:29;;;;;;;5.88;2.63;;;;;;;;;;5094598;28;20024;-80
2023/07/31 05:35:54;;;;;;;5.68;2.65;;;;;;;;;;5076210;28;20111;-80
2023/07/31 05:38:19;;;;;;;7.63;3.10;;;;;;;;;;5076180;28;20036;-80
2023/07/31 05:40:45;;;;;;;5.30;2.90;;;;;;;;;;5094357;28;20028;-80
2023/07/31 05:43:10;;;;;;;4.90;2.72;;;;;;;;;;5094640;28;20126;-80
2023/07/31 05:45:36;;;;;;;5.00;2.85;;;;;;;;;;5093275;28;20032;-80
2023/07/31 05:48:02;;;;;;;6.28;3.17;;;;;;;;;;5094507;28;20028;-80
2023/07/31 05:50:28;;;;;;;5.22;2.40;;;;;;;;;;5093037;28;20024;-80
2023/07/31 05:52:53;;;;;;;8.48;2.70;;;;;;;;;;5092966;28;20028;-80
2023/07/31 05:55:18;;;;;;;5.57;2.50;;;;;;;;;;5094804;28;20514;-80
2023/07/31 05:57:45;;;;;;;4.90;2.53;;;;;;;;;;5092785;28;20020;-80
2023/07/31 06:00:13;;;;;;;4.03;2.60;;;;;;;;;;5094441;28;20047;-80
2023/07/31 06:02:38;;;;;;;4.20;2.35;;;;;;;;;;5094313;28;20031;-80
2023/07/31 06:05:05;;;;;;;4.22;2.30;;;;;;;;;;5092780;28;20494;-80
2023/07/31 06:07:31;;;;;;;4.53;2.58;;;;;;;;;;5076383;28;20032;-80
2023/07/31 06:10:01;;;;;;;4.55;2.30;;;;;;;;;;5093105;28;20028;-80
2023/07/31 06:12:27;;;;;;;3.65;1.95;;;;;;;;;;5094519;28;20383;-80
2023/07/31 06:14:52;;;;;;;4.15;2.63;;;;;;;;;;5093234;28;20028;-80
2023/07/31 06:17:18;;;;;;;4.32;2.45;;;;;;;;;;5093905;28;20028;-80
2023/07/31 06:19:43;;;;;;;3.35;2.38;;;;;;;;;;5094078;28;20027;-80
2023/07/31 06:22:09;;;;;;;4.15;2.15;;;;;;;;;;5093651;28;20418;-80
2023/07/31 06:24:34;;;;;;;3.60;1.95;;;;;;;;;;5093948;28;20093;-80
2023/07/31 06:26:59;;;;;;;2.88;1.80;;;;;;;;;;5093957;28;20536;-80
2023/07/31 06:29:25;;;;;;;3.90;2.00;;;;;;;;;;5092828;28;20035;-80
2023/07/31 06:31:50;;;;;;;3.00;1.95;;;;;;;;;;5093723;28;20143;-80
2023/07/31 06:34:15;;;;;;;3.10;2.03;;;;;;;;;;5093934;28;20028;-80
2023/07/31 06:36:41;;;;;;;2.63;2.03;;;;;;;;;;5093917;28;20023;-80
2023/07/31 06:39:06;;;;;;;2.90;1.90;;;;;;;;;;5092654;28;20035;-80
2023/07/31 06:41:31;;;;;;;2.55;1.85;;;;;;;;;;5092366;28;20085;-80
2023/07/31 06:43:57;;;;;;;3.20;2.20;;;;;;;;;;5092628;28;20036;-80
2023/07/31 06:46:22;;;;;;;2.58;1.90;;;;;;;;;;5093440;28;20482;-80
2023/07/31 06:48:48;;;;;;;2.67;1.42;;;;;;;;;;5092591;28;20042;-80
2023/07/31 06:51:13;;;;;;;2.30;1.70;;;;;;;;;;5093813;28;20035;-80
2023/07/31 06:53:38;;;;;;;4.18;1.83;;;;;;;;;;5094028;28;20464;-80
2023/07/31 06:56:04;;;;;;;2.53;1.73;;;;;;;;;;5093317;28;20024;-80
2023/07/31 06:58:29;;;;;;;3.63;1.80;;;;;;;;;;5093649;28;20107;-80
2023/07/31 07:00:55;;;;;;;3.90;1.90;;;;;;;;;;5092097;28;20036;-79
2023/07/31 07:03:20;;;;;;;1.85;1.40;;;;;;;;;;5092284;28;20459;-80
2023/07/31 07:05:46;;;;;;;2.08;1.52;;;;;;;;;;5093207;28;20074;-80
2023/07/31 07:08:11;;;;;;;2.17;1.45;;;;;;;;;;5075431;28;20039;-80
2023/07/31 07:10:37;;;;;;;1.98;1.45;;;;;;;;;;5096048;28;20111;-80
2023/07/31 07:13:02;;;;;;;2.00;1.60;;;;;;;;;;5096140;28;20107;-80
2023/07/31 07:15:28;;;;;;;2.40;1.60;;;;;;;;;;5097674;28;20371;-80
2023/07/31 07:17:54;;;;;;;2.47;1.50;;;;;;;;;;5096385;28;20027;-80
2023/07/31 07:20:20;;;;;;;2.20;1.52;;;;;;;;;;5096071;28;20417;-79
2023/07/31 07:22:45;;;;;;;1.88;1.50;;;;;;;;;;5097139;28;20414;-79
2023/07/31 07:25:11;;;;;;;2.38;1.58;;;;;;;;;;5097320;28;20031;-80
2023/07/31 07:27:36;;;;;;;2.20;1.27;;;;;;;;;;5096072;28;20028;-80
2023/07/31 07:30:02;;;;;;;3.00;1.30;;;;;;;;;;5096155;28;20096;-80
2023/07/31 07:32:27;;;;;;;3.08;1.73;;;;;;;;;;5096109;28;20034;-80
2023/07/31 07:34:52;;;;;;;2.33;1.63;;;;;;;;;;5096923;28;20029;-80
2023/07/31 07:37:18;;;;;;;2.08;1.40;;;;;;;;;;5112683;28;20375;-80
2023/07/31 07:39:43;;;;;;;1.77;1.50;;;;;;;;;;5095830;28;20032;-80
2023/07/31 07:42:09;;;;;;;1.85;1.17;;;;;;;;;;5095647;28;20027;-80
2023/07/31 07:44:34;;;;;;;1.77;1.33;;;;;;;;;;5095988;28;20139;-80
2023/07/31 07:47:00;;;;;;;1.42;1.30;;;;;;;;;;5096998;28;20421;-80
2023/07/31 07:49:25;;;;;;;1.40;1.30;;;;;;;;;;5096833;28;20106;-80
2023/07/31 07:51:50;;;;;;;1.88;1.23;;;;;;;;;;5096730;28;20039;-80
2023/07/31 07:54:20;;;;;;;1.20;1.10;;;;;;;;;;5095733;28;20386;-80
2023/07/31 07:56:46;;;;;;;1.10;1.00;;;;;;;;;;5096538;28;20049;-80
2023/07/31 07:59:11;;;;;;;1.13;1.02;;;;;;;;;;5095148;28;20551;-80
2023/07/31 08:01:37;;;;;;;1.30;1.20;;;;;;;;;;5095498;28;20038;-80
2023/07/31 08:04:02;;;;;;;1.30;1.20;;;;;;;;;;5096638;28;20050;-80
2023/07/31 08:06:29;;;;;;;1.20;1.10;;;;;;;;;;5096542;28;20062;-80
2023/07/31 08:08:55;;;;;;;1.58;1.15;;;;;;;;;;5095417;28;20024;-80
2023/07/31 08:11:21;;;;;;;1.35;1.10;;;;;;;;;;5096183;28;20371;-80
2023/07/31 08:13:47;;;;;;;1.73;1.10;;;;;;;;;;5078167;28;20124;-80
2023/07/31 08:16:12;;;;;;;1.65;1.30;;;;;;;;;;5096292;28;20514;-80
2023/07/31 08:18:38;;;;;;;2.03;1.27;;;;;;;;;;5096377;28;20028;-80
2023/07/31 08:21:03;;;;;;;1.30;1.20;;;;;;;;;;5095863;28;20030;-80
2023/07/31 08:23:28;;;;;;;1.67;1.10;;;;;;;;;;5095040;28;20490;-80
2023/07/31 08:25:54;;;;;;;1.33;0.95;;;;;;;;;;5095891;28;20031;-80
2023/07/31 08:28:19;;;;;;;1.20;1.10;;;;;;;;;;5094632;28;20058;-80
2023/07/31 08:30:45;;;;;;;1.88;1.10;;;;;;;;;;5096174;28;20032;-80
2023/07/31 08:33:10;;;;;;;1.10;1.00;;;;;;;;;;5096062;28;20035;-80
2023/07/31 08:35:36;;;;;;;3.38;1.20;;;;;;;;;;5095735;28;20028;-80
2023/07/31 08:38:01;;;;;;;1.05;0.90;;;;;;;;;;5077567;28;20462;-80
2023/07/31 08:40:28;;;;;;;0.85;0.85;;;;;;;;;;5095642;28;20506;-80
2023/07/31 08:42:56;;;;;;;1.50;1.20;;;;;;;;;;5094436;28;20467;-80
2023/07/31 08:45:22;;;;;;;1.00;0.93;;;;;;;;;;5095774;28;20020;-79
2023/07/31 08:47:49;;;;;;;2.15;1.00;;;;;;;;;;5094357;28;20031;-79
2023/07/31 08:50:20;;;;;;;1.00;0.90;;;;;;;;;;5094272;28;20077;-80
2023/07/31 08:52:46;;;;;;;0.90;0.90;;;;;;;;;;5095399;28;20475;-80
2023/07/31 08:55:12;;;;;;;0.95;0.95;;;;;;;;;;5094159;28;20024;-80
2023/07/31 08:57:38;;;;;;;1.20;0.98;;;;;;;;;;5095300;28;20378;-80
2023/07/31 09:00:10;;;;;;;2.05;0.80;;;;;;;;;;5095556;28;20031;-80
2023/07/31 09:02:45;;;;;;;1.00;1.00;;;;;;;;;;5094020;28;20038;-80
2023/07/31 09:05:11;;;;;;;1.63;1.20;;;;;;;;;;5076926;28;20504;-80
2023/07/31 09:07:37;;;;;;;0.70;0.70;;;;;;;;;;5094289;28;20059;-80
2023/07/31 09:10:04;;;;;;;0.95;0.95;;;;;;;;;;5077273;28;20111;-80
2023/07/31 09:12:29;;;;;;;1.02;0.90;;;;;;;;;;5093843;28;20107;-80
2023/07/31 09:14:56;;;;;;;1.17;0.90;;;;;;;;;;5094989;28;20539;-80
2023/07/31 09:17:36;;;;;;;0.82;0.82;;;;;;;;;;5093764;28;20032;-80
2023/07/31 09:20:21;;;;;;;0.80;0.80;;;;;;;;;;5095129;28;20485;-79
2023/07/31 09:22:48;;;;;;;0.68;0.68;;;;;;;;;;5094729;28;20086;-80
2023/07/31 09:25:24;;;;;;;0.50;0.50;;;;;;;;;;5093840;28;20443;-80
2023/07/31 09:28:00;;;;;;;1.88;0.70;;;;;;;;;;5093452;28;20493;-80
2023/07/31 09:30:26;;;;;;;1.13;0.80;;;;;;;;;;5094724;28;20036;-80
2023/07/31 09:33:01;;;;;;;0.70;0.70;;;;;;;;;;5093045;28;20095;-80
2023/07/31 09:35:30;;;;;;;0.73;0.73;;;;;;;;;;5093699;28;20102;-80
2023/07/31 09:37:58;;;;;;;0.80;0.80;;;;;;;;;;5093963;28;20374;-80
2023/07/31 09:40:32;;;;;;;0.68;0.65;;;;;;;;;;5093514;28;20026;-80
2023/07/31 09:43:01;;;;;;;0.80;0.80;;;;;;;;;;5076343;28;20540;-80
2023/07/31 09:45:27;;;;;;;0.60;0.60;;;;;;;;;;5093109;28;20039;-80
2023/07/31 09:47:53;;;;;;;0.80;0.80;;;;;;;;;;5093740;28;20024;-80
2023/07/31 09:50:20;;;;;;;3.20;0.77;;;;;;;;;;5094504;28;20115;-80
2023/07/31 09:52:46;;;;;;;1.40;0.80;;;;;;;;;;5094313;28;20055;-80
2023/07/31 09:55:12;;;;;;;1.88;0.70;;;;;;;;;;5093382;28;20454;-80
2023/07/31 09:57:42;;;;;;;0.60;0.60;;;;;;;;;;5093221;28;20028;-80
2023/07/31 10:00:11;;;;;;;0.57;0.57;;;;;;;;;;5076128;28;20047;-80
2023/07/31 10:02:38;;;;;;;0.80;0.80;;;;;;;;;;5094404;28;20028;-80
2023/07/31 10:05:04;;;;;;;0.70;0.70;;;;;;;;;;5092746;28;20028;-80
2023/07/31 10:07:31;;;;;;;17.50;1.63;;;;;;;;;;5093116;28;20047;-79
2023/07/31 10:10:00;;;;;;;4.75;0.80;;;;;;;;;;5092779;28;20028;-80
2023/07/31 10:12:29;;;;;;;1.27;0.80;;;;;;;;;;5093912;28;20103;-81
2023/07/31 10:14:55;;;;;;;0.80;0.80;;;;;;;;;;5092692;28;20129;-79
2023/07/31 10:17:25;;;;;;;0.80;0.70;;;;;;;;;;5092651;28;20566;-80
2023/07/31 10:19:50;;;;;;;1.42;0.70;;;;;;;;;;5093221;28;20524;-80
2023/07/31 10:22:16;;;;;;;1.23;0.70;;;;;;;;;;5092804;28;20072;-80
2023/07/31 10:24:45;;;;;;;0.70;0.70;;;;;;;;;;5093943;28;20034;-81
2023/07/31 10:27:11;;;;;;;0.80;0.80;;;;;;;;;;5092501;28;20111;-80
2023/07/31 10:29:38;;;;;;;0.85;0.80;;;;;;;;;;5093061;28;20150;-80
2023/07/31 10:32:06;;;;;;;0.80;0.80;;;;;;;;;;5092473;28;20036;-80
2023/07/31 10:34:34;;;;;;;0.77;0.77;;;;;;;;;;5093005;28;20028;-80
2023/07/31 10:37:25;;;;;;;0.70;0.70;;;;;;;;;;5092386;28;20115;-80
2023/07/31 10:40:16;;;;;;;1.10;0.77;;;;;;;;;;5092341;28;20390;-79
2023/07/31 10:42:48;;;;;;;1.25;0.90;;;;;;;;;;5092605;28;20031;-80
2023/07/31 10:45:14;;;;;;;0.93;0.80;;;;;;;;;;5093305;28;20020;-80
2023/07/31 10:47:46;;;;;;;0.80;0.80;;;;;;;;;;5075382;28;20035;-80
2023/07/31 10:50:23;;;;;;;1.15;0.90;;;;;;;;;;5092242;28;20492;-80
2023/07/31 10:52:57;;;;;;;1.08;0.88;;;;;;;;;;5093508;28;20030;-80
2023/07/31 10:55:26;;;;;;;;;;;;;;;;;;5093233;28;20463;-80
2023/07/31 10:57:53;;;;;;;0.95;0.90;;;;;;;;;;5093366;28;19908;-80
2023/07/31 11:00:19;;;;;;;1.20;0.80;;;;;;;;;;5092181;28;20069;-80
2023/07/31 11:02:58;;;;;;;0.95;0.95;;;;;;;;;;5093647;28;20023;-80
2023/07/31 11:05:46;;;;;;;2.33;1.00;;;;;;;;;;5093274;28;20021;-80
2023/07/31 11:08:15;;;;;;;1.20;1.00;;;;;;;;;;5092516;28;20020;-80
2023/07/31 11:10:41;;;;;;;1.10;0.90;;;;;;;;;;5093236;28;20412;-80
2023/07/31 11:13:07;;;;;;;1.20;1.00;;;;;;;;;;5092396;28;20406;-80
2023/07/31 11:15:32;;;;;;;0.88;0.88;;;;;;;;;;5092237;28;20029;-81
2023/07/31 11:18:05;;;;;;;2.58;1.10;;;;;;;;;;5092351;28;20031;-80
2023/07/31 11:20:32;;;;;;;1.33;0.90;;;;;;;;;;5093537;28;20124;-80
2023/07/31 11:23:09;;;;;;;1.20;1.05;;;;;;;;;;5091858;28;20433;-80
2023/07/31 11:25:35;;;;;;;1.30;1.20;;;;;;;;;;5092199;28;20482;-80
2023/07/31 11:28:04;;;;;;;0.90;0.90;;;;;;;;;;5092202;28;20067;-80
2023/07/31 11:30:30;;;;;;;1.20;1.10;;;;;;;;;;5075043;28;20035;-80
2023/07/31 11:32:55;;;;;;;1.55;1.10;;;;;;;;;;5093050;28;20032;-80
2023/07/31 11:35:22;;;;;;;1.02;0.98;;;;;;;;;;5091887;28;20471;-80
2023/07/31 11:37:48;;;;;;;2.40;1.00;;;;;;;;;;5091874;28;20493;-80
2023/07/31 11:40:14;;;;;;;1.17;1.08;;;;;;;;;;5093032;28;20032;-80
2023/07/31 11:42:40;;;;;;;1.45;1.00;;;;;;;;;;5093007;28;20036;-80
2023/07/31 11:45:06;;;;;;;1.20;0.90;;;;;;;;;;5092022;28;20028;-82
2023/07/31 11:47:36;;;;;;;1.23;1.08;;;;;;;;;;5091758;28;20032;-82
2023/07/31 11:50:03;;;;;;;0.90;0.90;;;;;;;;;;5075206;28;20039;-80
2023/07/31 11:52:30;;;;;;;1.02;0.93;;;;;;;;;;5091802;28;20032;-80
2023/07/31 11:54:56;;;;;;;0.88;0.88;;;;;;;;;;5075295;28;20057;-80
2023/07/31 11:57:22;;;;;;;0.70;0.70;;;;;;;;;;5095202;28;20035;-80
2023/07/31 11:59:48;;;;;;;1.52;0.80;;;;;;;;;;5095256;28;20032;-80
2023/07/31 12:02:14;;;;;;;0.90;0.90;;;;;;;;;;5095128;28;20024;-80
2023/07/31 12:04:39;;;;;;;1.35;0.70;;;;;;;;;;5096294;28;20031;-80
2023/07/31 12:07:05;;;;;;;1.27;0.90;;;;;;;;;;5095179;28;20032;-81
2023/07/31 12:09:30;;;;;;;1.30;0.80;;;;;;;;;;5096261;28;20479;-81
2023/07/31 12:11:56;;;;;;;1.20;0.82;;;;;;;;;;5096503;28;20146;-80
2023/07/31 12:14:26;;;;;;;0.73;0.73;;;;;;;;;;5095302;28;20028;-80
2023/07/31 12:17:00;;;;;;;0.82;0.80;;;;;;;;;;5094968;28;20040;-80
2023/07/31 12:19:29;;;;;;;0.70;0.70;;;;;;;;;;5096317;28;20024;-80
2023/07/31 12:21:55;;;;;;;1.00;0.90;;;;;;;;;;5094756;28;20048;-80
2023/07/31 12:24:21;;;;;;;0.95;0.80;;;;;;;;;;5094825;28;20114;-80
2023/07/31 12:26:48;;;;;;;0.80;0.80;;;;;;;;;;5096171;28;20107;-81
2023/07/31 12:29:13;;;;;;;0.75;0.75;;;;;;;;;;5094732;28;20074;-80
2023/07/31 12:31:41;;;;;;;1.13;0.90;;;;;;;;;;5094644;28;20036;-80
2023/07/31 12:34:16;;;;;;;3.10;1.00;;;;;;;;;;5094968;28;20024;-80
2023/07/31 12:36:42;;;;;;;0.80;0.80;;;;;;;;;;5094505;28;20473;-80
2023/07/31 12:39:07;;;;;;;1.05;1.00;;;;;;;;;;5095962;28;20107;-80
2023/07/31 12:41:33;;;;;;;0.80;0.80;;;;;;;;;;5094526;28;20062;-80
2023/07/31 12:43:59;;;;;;;0.93;0.90;;;;;;;;;;5094393;28;20546;-81
2023/07/31 12:46:24;;;;;;;3.53;0.93;;;;;;;;;;5077421;28;20427;-81
2023/07/31 12:48:50;;;;;;;1.00;1.00;;;;;;;;;;5095449;28;20028;-80
2023/07/31 12:51:15;;;;;;;0.80;0.80;;;;;;;;;;5095889;28;20036;-80
2023/07/31 12:53:40;;;;;;;1.05;0.98;;;;;;;;;;5094284;28;20081;-80
2023/07/31 12:56:06;;;;;;;0.73;0.73;;;;;;;;;;5095377;28;20035;-80
2023/07/31 12:58:31;;;;;;;1.42;0.80;;;;;;;;;;5094141;28;20486;-81
2023/07/31 13:00:57;;;;;;;0.82;0.75;;;;;;;;;;5094169;28;20066;-80
2023/07/31 13:03:22;;;;;;;0.70;0.70;;;;;;;;;;5095425;28;20032;-80
2023/07/31 13:05:48;;;;;;;0.93;0.90;;;;;;;;;;5095476;28;20405;-80
2023/07/31 13:08:15;;;;;;;0.80;0.80;;;;;;;;;;5094019;28;20034;-80
2023/07/31 13:10:41;;;;;;;0.90;0.80;;;;;;;;;;5095132;28;20032;-80
2023/07/31 13:13:06;;;;;;;1.23;0.98;;;;;;;;;;5093777;28;20123;-81
2023/07/31 13:15:31;;;;;;;1.77;1.13;;;;;;;;;;5093935;28;20077;-81
2023/07/31 13:17:57;;;;;;;0.90;0.90;;;;;;;;;;5094156;28;20048;-81
2023/07/31 13:20:22;;;;;;;0.80;0.80;;;;;;;;;;5095101;28;20057;-81
2023/07/31 13:22:48;;;;;;;1.05;0.90;;;;;;;;;;5094820;28;20060;-81
2023/07/31 13:25:13;;;;;;;0.98;0.77;;;;;;;;;;5094139;28;20020;-80
2023/07/31 13:27:38;;;;;;;1.02;0.80;;;;;;;;;;5094995;28;20051;-80
2023/07/31 13:30:04;;;;;;;0.80;0.80;;;;;;;;;;5094774;28;20493;-80
2023/07/31 13:32:30;;;;;;;0.70;0.70;;;;;;;;;;5093478;28;20055;-80
2023/07/31 13:34:55;;;;;;;0.80;0.80;;;;;;;;;;5093494;28;20020;-81
2023/07/31 13:37:20;;;;;;;0.70;0.70;;;;;;;;;;5094937;28;20424;-81
2023/07/31 13:39:46;;;;;;;0.90;0.90;;;;;;;;;;5093534;28;20085;-81
2023/07/31 13:42:12;;;;;;;0.80;0.80;;;;;;;;;;5094830;28;20505;-81
2023/07/31 13:44:41;;;;;;;0.80;0.80;;;;;;;;;;5094510;28;20059;-81
2023/07/31 13:47:07;;;;;;;1.60;0.90;;;;;;;;;;5076317;28;20391;-81
2023/07/31 13:49:33;;;;;;;0.95;0.90;;;;;;;;;;5093171;28;20035;-81
2023/07/31 13:51:58;;;;;;;2.03;0.90;;;;;;;;;;5093430;28;20034;-81
2023/07/31 13:54:25;;;;;;;1.10;0.90;;;;;;;;;;5093399;28;20036;-81
2023/07/31 13:56:51;;;;;;;0.70;0.70;;;;;;;;;;5076064;28;20081;-81
2023/07/31 13:59:16;;;;;;;0.73;0.73;;;;;;;;;;5094489;28;20032;-81
2023/07/31 14:01:43;;;;;;;0.77;0.77;;;;;;;;;;5076018;28;20024;-81
2023/07/31 14:04:08;;;;;;;0.80;0.80;;;;;;;;;;5094109;28;20115;-81
2023/07/31 14:06:33;;;;;;;1.48;0.70;;;;;;;;;;5092612;28;20444;-80
2023/07/31 14:08:59;;;;;;;0.75;0.75;;;;;;;;;;5092850;28;20035;-80
2023/07/31 14:11:24;;;;;;;0.90;0.90;;;;;;;;;;5092680;28;20208;-80
2023/07/31 14:13:51;;;;;;;0.70;0.70;;;;;;;;;;5093974;28;20028;-80
2023/07/31 14:16:17;;;;;;;0.90;0.70;;;;;;;;;;5092702;28;20024;-80
2023/07/31 14:18:42;;;;;;;0.80;0.80;;;;;;;;;;5092389;28;20028;-81
2023/07/31 14:21:08;;;;;;;0.80;0.80;;;;;;;;;;5094081;28;20382;-81
2023/07/31 14:23:33;;;;;;;0.95;0.88;;;;;;;;;;5094352;28;20032;-81
2023/07/31 14:25:59;;;;;;;4.05;0.95;;;;;;;;;;5092586;28;20379;-81
2023/07/31 14:28:24;;;;;;;0.90;0.90;;;;;;;;;;5093719;28;20028;-81
2023/07/31 14:30:50;;;;;;;0.75;0.75;;;;;;;;;;5093962;28;20055;-81
2023/07/31 14:33:15;;;;;;;1.95;0.90;;;;;;;;;;5093724;28;20028;-80
2023/07/31 14:35:40;;;;;;;0.85;0.80;;;;;;;;;;5093658;28;20055;-81
2023/07/31 14:38:06;;;;;;;0.82;0.82;;;;;;;;;;5093934;28;20471;-81
2023/07/31 14:40:32;;;;;;;9.00;0.90;;;;;;;;;;5092543;28;20028;-81